sensor_id;sensor_type;location;lat;lon;timestamp;P1;durP1;ratioP1;P2;durP2;ratioP2
6937;SDS011;40040;42.706;23.372;2022-07-03T00:02:19;13.57;;;9.18;;
6937;SDS011;40040;42.706;23.372;2022-07-03T00:04:45;9.52;;;8.57;;
6937;SDS011;40040;42.706;23.372;2022-07-03T00:07:12;10.00;;;8.75;;
6937;SDS011;40040;42.706;23.372;2022-07-03T00:09:39;11.25;;;8.60;;
6937;SDS011;40040;42.706;23.372;2022-07-03T00:12:08;9.40;;;8.27;;
6937;SDS011;40040;42.706;23.372;2022-07-03T00:14:36;10.48;;;9.00;;
6937;SDS011;40040;42.706;23.372;2022-07-03T00:17:03;9.70;;;8.68;;
6937;SDS011;40040;42.706;23.372;2022-07-03T00:19:30;11.18;;;8.88;;
6937;SDS011;40040;42.706;23.372;2022-07-03T00:22:00;12.20;;;9.05;;
6937;SDS011;40040;42.706;23.372;2022-07-03T00:24:32;12.65;;;8.93;;
6937;SDS011;40040;42.706;23.372;2022-07-03T00:27:04;9.88;;;8.98;;
6937;SDS011;40040;42.706;23.372;2022-07-03T00:29:36;10.48;;;8.98;;
6937;SDS011;40040;42.706;23.372;2022-07-03T00:32:05;9.45;;;8.45;;
6937;SDS011;40040;42.706;23.372;2022-07-03T00:34:34;11.07;;;8.73;;
6937;SDS011;40040;42.706;23.372;2022-07-03T00:37:02;11.13;;;8.70;;
6937;SDS011;40040;42.706;23.372;2022-07-03T00:39:32;8.98;;;8.07;;
6937;SDS011;40040;42.706;23.372;2022-07-03T00:42:02;10.00;;;8.30;;
6937;SDS011;40040;42.706;23.372;2022-07-03T00:44:33;11.20;;;8.27;;
6937;SDS011;40040;42.706;23.372;2022-07-03T00:47:02;10.13;;;9.00;;
6937;SDS011;40040;42.706;23.372;2022-07-03T00:49:30;11.00;;;9.10;;
6937;SDS011;40040;42.706;23.372;2022-07-03T00:51:58;10.35;;;8.75;;
6937;SDS011;40040;42.706;23.372;2022-07-03T00:54:29;9.15;;;8.35;;
6937;SDS011;40040;42.706;23.372;2022-07-03T00:57:00;9.90;;;8.88;;
6937;SDS011;40040;42.706;23.372;2022-07-03T00:59:28;11.07;;;9.40;;
6937;SDS011;40040;42.706;23.372;2022-07-03T01:01:59;11.77;;;9.05;;
6937;SDS011;40040;42.706;23.372;2022-07-03T01:04:34;12.52;;;8.90;;
6937;SDS011;40040;42.706;23.372;2022-07-03T01:07:07;11.48;;;9.18;;
6937;SDS011;40040;42.706;23.372;2022-07-03T01:09:42;11.32;;;9.43;;
6937;SDS011;40040;42.706;23.372;2022-07-03T01:12:22;12.88;;;9.63;;
6937;SDS011;40040;42.706;23.372;2022-07-03T01:14:55;15.77;;;10.70;;
6937;SDS011;40040;42.706;23.372;2022-07-03T01:17:34;13.93;;;10.52;;
6937;SDS011;40040;42.706;23.372;2022-07-03T01:20:06;14.02;;;10.38;;
6937;SDS011;40040;42.706;23.372;2022-07-03T01:22:34;15.45;;;10.50;;
6937;SDS011;40040;42.706;23.372;2022-07-03T01:25:16;15.40;;;10.88;;
6937;SDS011;40040;42.706;23.372;2022-07-03T01:30:38;15.20;;;11.27;;
6937;SDS011;40040;42.706;23.372;2022-07-03T01:33:06;14.88;;;11.18;;
6937;SDS011;40040;42.706;23.372;2022-07-03T01:35:35;17.63;;;11.23;;
6937;SDS011;40040;42.706;23.372;2022-07-03T01:38:06;17.38;;;11.43;;
6937;SDS011;40040;42.706;23.372;2022-07-03T01:40:35;20.25;;;11.38;;
6937;SDS011;40040;42.706;23.372;2022-07-03T01:43:04;18.00;;;10.63;;
6937;SDS011;40040;42.706;23.372;2022-07-03T01:45:35;13.10;;;10.05;;
6937;SDS011;40040;42.706;23.372;2022-07-03T01:48:05;15.20;;;10.38;;
6937;SDS011;40040;42.706;23.372;2022-07-03T01:50:32;13.55;;;9.57;;
6937;SDS011;40040;42.706;23.372;2022-07-03T01:53:00;11.70;;;9.70;;
6937;SDS011;40040;42.706;23.372;2022-07-03T01:55:30;15.40;;;10.45;;
6937;SDS011;40040;42.706;23.372;2022-07-03T01:57:58;12.98;;;10.30;;
6937;SDS011;40040;42.706;23.372;2022-07-03T02:00:26;12.43;;;10.13;;
6937;SDS011;40040;42.706;23.372;2022-07-03T02:02:58;13.00;;;9.98;;
6937;SDS011;40040;42.706;23.372;2022-07-03T02:05:38;11.77;;;9.80;;
6937;SDS011;40040;42.706;23.372;2022-07-03T02:08:24;12.93;;;9.98;;
6937;SDS011;40040;42.706;23.372;2022-07-03T02:11:06;12.73;;;10.32;;
6937;SDS011;40040;42.706;23.372;2022-07-03T02:13:37;13.85;;;10.05;;
6937;SDS011;40040;42.706;23.372;2022-07-03T02:16:06;13.80;;;10.00;;
6937;SDS011;40040;42.706;23.372;2022-07-03T02:18:37;10.50;;;9.38;;
6937;SDS011;40040;42.706;23.372;2022-07-03T02:21:07;12.00;;;9.75;;
6937;SDS011;40040;42.706;23.372;2022-07-03T02:23:43;14.60;;;9.85;;
6937;SDS011;40040;42.706;23.372;2022-07-03T02:26:19;12.10;;;9.75;;
6937;SDS011;40040;42.706;23.372;2022-07-03T02:28:58;14.07;;;10.70;;
6937;SDS011;40040;42.706;23.372;2022-07-03T02:31:28;24.42;;;16.25;;
6937;SDS011;40040;42.706;23.372;2022-07-03T02:34:06;28.15;;;16.80;;
6937;SDS011;40040;42.706;23.372;2022-07-03T02:36:34;23.17;;;16.83;;
6937;SDS011;40040;42.706;23.372;2022-07-03T02:39:02;22.48;;;17.17;;
6937;SDS011;40040;42.706;23.372;2022-07-03T02:41:37;29.85;;;19.35;;
6937;SDS011;40040;42.706;23.372;2022-07-03T02:44:16;31.02;;;20.60;;
6937;SDS011;40040;42.706;23.372;2022-07-03T02:46:52;29.05;;;21.30;;
6937;SDS011;40040;42.706;23.372;2022-07-03T02:49:43;29.92;;;21.02;;
6937;SDS011;40040;42.706;23.372;2022-07-03T02:52:32;30.10;;;20.67;;
6937;SDS011;40040;42.706;23.372;2022-07-03T02:55:08;34.28;;;22.63;;
6937;SDS011;40040;42.706;23.372;2022-07-03T02:57:44;38.17;;;24.55;;
6937;SDS011;40040;42.706;23.372;2022-07-03T03:00:11;33.75;;;23.40;;
6937;SDS011;40040;42.706;23.372;2022-07-03T03:02:47;29.27;;;20.98;;
6937;SDS011;40040;42.706;23.372;2022-07-03T03:05:24;27.38;;;17.63;;
6937;SDS011;40040;42.706;23.372;2022-07-03T03:07:57;21.48;;;16.27;;
6937;SDS011;40040;42.706;23.372;2022-07-03T03:10:28;21.27;;;15.00;;
6937;SDS011;40040;42.706;23.372;2022-07-03T03:12:58;19.65;;;14.00;;
6937;SDS011;40040;42.706;23.372;2022-07-03T03:15:31;19.60;;;13.07;;
6937;SDS011;40040;42.706;23.372;2022-07-03T03:18:00;17.00;;;12.30;;
6937;SDS011;40040;42.706;23.372;2022-07-03T03:20:31;15.60;;;12.82;;
6937;SDS011;40040;42.706;23.372;2022-07-03T03:23:03;20.40;;;13.23;;
6937;SDS011;40040;42.706;23.372;2022-07-03T03:25:38;18.58;;;13.15;;
6937;SDS011;40040;42.706;23.372;2022-07-03T03:28:05;47.83;;;34.30;;
6937;SDS011;40040;42.706;23.372;2022-07-03T03:30:32;52.88;;;37.30;;
6937;SDS011;40040;42.706;23.372;2022-07-03T03:33:01;68.90;;;42.30;;
6937;SDS011;40040;42.706;23.372;2022-07-03T03:35:28;67.05;;;41.85;;
6937;SDS011;40040;42.706;23.372;2022-07-03T03:37:56;54.75;;;35.47;;
6937;SDS011;40040;42.706;23.372;2022-07-03T03:40:23;68.57;;;44.38;;
6937;SDS011;40040;42.706;23.372;2022-07-03T03:42:50;80.63;;;48.15;;
6937;SDS011;40040;42.706;23.372;2022-07-03T03:45:17;63.80;;;40.20;;
6937;SDS011;40040;42.706;23.372;2022-07-03T03:47:44;60.08;;;39.30;;
6937;SDS011;40040;42.706;23.372;2022-07-03T03:50:11;56.88;;;37.95;;
6937;SDS011;40040;42.706;23.372;2022-07-03T03:52:38;40.55;;;25.27;;
6937;SDS011;40040;42.706;23.372;2022-07-03T03:55:07;44.72;;;28.67;;
6937;SDS011;40040;42.706;23.372;2022-07-03T03:57:35;38.53;;;26.15;;
6937;SDS011;40040;42.706;23.372;2022-07-03T04:00:02;44.50;;;29.95;;
6937;SDS011;40040;42.706;23.372;2022-07-03T04:02:30;38.97;;;24.60;;
6937;SDS011;40040;42.706;23.372;2022-07-03T04:04:57;41.08;;;26.23;;
6937;SDS011;40040;42.706;23.372;2022-07-03T04:07:24;28.70;;;20.13;;
6937;SDS011;40040;42.706;23.372;2022-07-03T04:09:51;30.92;;;17.30;;
6937;SDS011;40040;42.706;23.372;2022-07-03T04:12:19;23.73;;;15.95;;
6937;SDS011;40040;42.706;23.372;2022-07-03T04:14:46;26.67;;;18.23;;
6937;SDS011;40040;42.706;23.372;2022-07-03T04:17:13;28.25;;;20.17;;
6937;SDS011;40040;42.706;23.372;2022-07-03T04:19:40;30.40;;;19.98;;
6937;SDS011;40040;42.706;23.372;2022-07-03T04:22:07;27.05;;;18.30;;
6937;SDS011;40040;42.706;23.372;2022-07-03T04:24:34;17.63;;;12.65;;
6937;SDS011;40040;42.706;23.372;2022-07-03T04:27:01;16.13;;;11.75;;
6937;SDS011;40040;42.706;23.372;2022-07-03T04:29:30;16.05;;;12.10;;
6937;SDS011;40040;42.706;23.372;2022-07-03T04:31:56;13.90;;;11.27;;
6937;SDS011;40040;42.706;23.372;2022-07-03T04:34:23;13.45;;;11.00;;
6937;SDS011;40040;42.706;23.372;2022-07-03T04:36:50;15.65;;;11.35;;
6937;SDS011;40040;42.706;23.372;2022-07-03T04:39:17;15.35;;;11.30;;
6937;SDS011;40040;42.706;23.372;2022-07-03T04:41:44;16.08;;;12.02;;
6937;SDS011;40040;42.706;23.372;2022-07-03T04:44:10;16.08;;;12.23;;
6937;SDS011;40040;42.706;23.372;2022-07-03T04:46:39;17.60;;;12.38;;
6937;SDS011;40040;42.706;23.372;2022-07-03T04:49:06;19.23;;;13.38;;
6937;SDS011;40040;42.706;23.372;2022-07-03T04:51:33;26.58;;;14.98;;
6937;SDS011;40040;42.706;23.372;2022-07-03T04:54:00;26.42;;;19.65;;
6937;SDS011;40040;42.706;23.372;2022-07-03T04:56:26;45.78;;;27.67;;
6937;SDS011;40040;42.706;23.372;2022-07-03T04:58:53;44.58;;;29.98;;
6937;SDS011;40040;42.706;23.372;2022-07-03T05:01:20;46.70;;;29.48;;
6937;SDS011;40040;42.706;23.372;2022-07-03T05:03:48;37.97;;;25.60;;
6937;SDS011;40040;42.706;23.372;2022-07-03T05:06:15;28.83;;;20.20;;
6937;SDS011;40040;42.706;23.372;2022-07-03T05:08:42;31.83;;;21.13;;
6937;SDS011;40040;42.706;23.372;2022-07-03T05:11:09;25.13;;;17.30;;
6937;SDS011;40040;42.706;23.372;2022-07-03T05:13:35;16.30;;;13.20;;
6937;SDS011;40040;42.706;23.372;2022-07-03T05:16:02;15.18;;;12.95;;
6937;SDS011;40040;42.706;23.372;2022-07-03T05:18:30;18.20;;;13.93;;
6937;SDS011;40040;42.706;23.372;2022-07-03T05:20:58;15.57;;;12.50;;
6937;SDS011;40040;42.706;23.372;2022-07-03T05:23:25;21.25;;;14.85;;
6937;SDS011;40040;42.706;23.372;2022-07-03T05:25:51;18.10;;;13.63;;
6937;SDS011;40040;42.706;23.372;2022-07-03T05:28:20;22.38;;;15.63;;
6937;SDS011;40040;42.706;23.372;2022-07-03T05:30:47;28.60;;;16.88;;
6937;SDS011;40040;42.706;23.372;2022-07-03T05:33:14;21.30;;;16.02;;
6937;SDS011;40040;42.706;23.372;2022-07-03T05:35:41;18.70;;;13.80;;
6937;SDS011;40040;42.706;23.372;2022-07-03T05:38:09;19.17;;;14.82;;
6937;SDS011;40040;42.706;23.372;2022-07-03T05:40:36;19.08;;;13.93;;
6937;SDS011;40040;42.706;23.372;2022-07-03T05:43:01;18.98;;;14.27;;
6937;SDS011;40040;42.706;23.372;2022-07-03T05:45:28;16.17;;;13.18;;
6937;SDS011;40040;42.706;23.372;2022-07-03T05:47:55;18.67;;;13.18;;
6937;SDS011;40040;42.706;23.372;2022-07-03T05:50:22;15.73;;;13.32;;
6937;SDS011;40040;42.706;23.372;2022-07-03T05:52:49;17.30;;;14.55;;
6937;SDS011;40040;42.706;23.372;2022-07-03T05:55:17;18.83;;;14.52;;
6937;SDS011;40040;42.706;23.372;2022-07-03T05:57:44;17.98;;;14.18;;
6937;SDS011;40040;42.706;23.372;2022-07-03T06:00:11;16.70;;;13.55;;
6937;SDS011;40040;42.706;23.372;2022-07-03T06:02:39;20.42;;;15.20;;
6937;SDS011;40040;42.706;23.372;2022-07-03T06:05:06;16.67;;;13.15;;
6937;SDS011;40040;42.706;23.372;2022-07-03T06:07:33;17.10;;;13.45;;
6937;SDS011;40040;42.706;23.372;2022-07-03T06:10:00;15.50;;;11.57;;
6937;SDS011;40040;42.706;23.372;2022-07-03T06:12:28;15.77;;;11.98;;
6937;SDS011;40040;42.706;23.372;2022-07-03T06:14:55;15.98;;;11.88;;
6937;SDS011;40040;42.706;23.372;2022-07-03T06:17:21;13.52;;;12.02;;
6937;SDS011;40040;42.706;23.372;2022-07-03T06:19:48;16.48;;;12.25;;
6937;SDS011;40040;42.706;23.372;2022-07-03T06:22:15;15.90;;;12.45;;
6937;SDS011;40040;42.706;23.372;2022-07-03T06:24:42;13.20;;;11.68;;
6937;SDS011;40040;42.706;23.372;2022-07-03T06:27:09;16.50;;;12.82;;
6937;SDS011;40040;42.706;23.372;2022-07-03T06:29:37;13.98;;;11.90;;
6937;SDS011;40040;42.706;23.372;2022-07-03T06:32:04;13.98;;;12.23;;
6937;SDS011;40040;42.706;23.372;2022-07-03T06:34:31;14.13;;;11.40;;
6937;SDS011;40040;42.706;23.372;2022-07-03T06:36:58;16.13;;;11.93;;
6937;SDS011;40040;42.706;23.372;2022-07-03T06:39:25;19.75;;;12.50;;
6937;SDS011;40040;42.706;23.372;2022-07-03T06:41:51;15.65;;;12.25;;
6937;SDS011;40040;42.706;23.372;2022-07-03T06:44:18;15.23;;;11.35;;
6937;SDS011;40040;42.706;23.372;2022-07-03T06:46:47;15.80;;;12.40;;
6937;SDS011;40040;42.706;23.372;2022-07-03T06:49:13;12.68;;;11.35;;
6937;SDS011;40040;42.706;23.372;2022-07-03T06:51:40;14.98;;;11.10;;
6937;SDS011;40040;42.706;23.372;2022-07-03T06:54:07;15.95;;;10.85;;
6937;SDS011;40040;42.706;23.372;2022-07-03T06:56:34;11.73;;;10.20;;
6937;SDS011;40040;42.706;23.372;2022-07-03T06:59:01;13.45;;;10.35;;
6937;SDS011;40040;42.706;23.372;2022-07-03T07:01:28;11.27;;;9.65;;
6937;SDS011;40040;42.706;23.372;2022-07-03T07:03:57;12.75;;;9.88;;
6937;SDS011;40040;42.706;23.372;2022-07-03T07:06:24;11.70;;;10.30;;
6937;SDS011;40040;42.706;23.372;2022-07-03T07:08:50;13.43;;;10.63;;
6937;SDS011;40040;42.706;23.372;2022-07-03T07:11:17;12.20;;;9.70;;
6937;SDS011;40040;42.706;23.372;2022-07-03T07:13:44;11.30;;;9.45;;
6937;SDS011;40040;42.706;23.372;2022-07-03T07:16:11;11.35;;;10.07;;
6937;SDS011;40040;42.706;23.372;2022-07-03T07:18:39;14.50;;;10.57;;
6937;SDS011;40040;42.706;23.372;2022-07-03T07:21:07;11.73;;;9.52;;
6937;SDS011;40040;42.706;23.372;2022-07-03T07:23:34;10.68;;;9.05;;
6937;SDS011;40040;42.706;23.372;2022-07-03T07:26:02;11.23;;;9.68;;
6937;SDS011;40040;42.706;23.372;2022-07-03T07:28:29;10.80;;;9.68;;
6937;SDS011;40040;42.706;23.372;2022-07-03T07:30:58;12.90;;;10.38;;
6937;SDS011;40040;42.706;23.372;2022-07-03T07:33:25;11.85;;;10.20;;
6937;SDS011;40040;42.706;23.372;2022-07-03T07:35:52;10.48;;;9.32;;
6937;SDS011;40040;42.706;23.372;2022-07-03T07:38:20;10.43;;;9.23;;
6937;SDS011;40040;42.706;23.372;2022-07-03T07:40:47;15.27;;;9.80;;
6937;SDS011;40040;42.706;23.372;2022-07-03T07:43:14;13.43;;;9.77;;
6937;SDS011;40040;42.706;23.372;2022-07-03T07:45:40;13.50;;;9.82;;
6937;SDS011;40040;42.706;23.372;2022-07-03T07:48:07;15.10;;;9.55;;
6937;SDS011;40040;42.706;23.372;2022-07-03T07:50:34;8.30;;;7.50;;
6937;SDS011;40040;42.706;23.372;2022-07-03T07:53:01;9.63;;;7.78;;
6937;SDS011;40040;42.706;23.372;2022-07-03T07:55:30;10.27;;;8.20;;
6937;SDS011;40040;42.706;23.372;2022-07-03T07:57:57;9.98;;;7.85;;
6937;SDS011;40040;42.706;23.372;2022-07-03T08:00:23;8.57;;;7.68;;
6937;SDS011;40040;42.706;23.372;2022-07-03T08:02:50;9.75;;;8.25;;
6937;SDS011;40040;42.706;23.372;2022-07-03T08:05:35;10.63;;;7.93;;
6937;SDS011;40040;42.706;23.372;2022-07-03T08:08:02;10.25;;;8.20;;
6937;SDS011;40040;42.706;23.372;2022-07-03T08:10:34;8.75;;;7.85;;
6937;SDS011;40040;42.706;23.372;2022-07-03T08:13:02;10.73;;;7.88;;
6937;SDS011;40040;42.706;23.372;2022-07-03T08:15:29;10.25;;;7.70;;
6937;SDS011;40040;42.706;23.372;2022-07-03T08:17:56;8.57;;;7.68;;
6937;SDS011;40040;42.706;23.372;2022-07-03T08:20:23;10.38;;;8.40;;
6937;SDS011;40040;42.706;23.372;2022-07-03T08:22:50;8.85;;;7.95;;
6937;SDS011;40040;42.706;23.372;2022-07-03T08:25:17;8.35;;;7.47;;
6937;SDS011;40040;42.706;23.372;2022-07-03T08:27:46;9.30;;;8.05;;
6937;SDS011;40040;42.706;23.372;2022-07-03T08:30:13;8.77;;;7.60;;
6937;SDS011;40040;42.706;23.372;2022-07-03T08:32:42;8.80;;;7.90;;
6937;SDS011;40040;42.706;23.372;2022-07-03T08:35:09;10.63;;;7.95;;
6937;SDS011;40040;42.706;23.372;2022-07-03T08:37:36;9.70;;;7.80;;
6937;SDS011;40040;42.706;23.372;2022-07-03T08:40:06;9.18;;;8.00;;
6937;SDS011;40040;42.706;23.372;2022-07-03T08:42:34;9.43;;;7.70;;
6937;SDS011;40040;42.706;23.372;2022-07-03T08:45:05;8.13;;;7.43;;
6937;SDS011;40040;42.706;23.372;2022-07-03T08:47:36;9.55;;;7.72;;
6937;SDS011;40040;42.706;23.372;2022-07-03T08:50:05;9.50;;;7.75;;
6937;SDS011;40040;42.706;23.372;2022-07-03T08:52:33;7.82;;;7.03;;
6937;SDS011;40040;42.706;23.372;2022-07-03T08:55:01;8.20;;;7.38;;
6937;SDS011;40040;42.706;23.372;2022-07-03T08:57:29;7.75;;;7.05;;
6937;SDS011;40040;42.706;23.372;2022-07-03T08:59:58;8.57;;;6.75;;
6937;SDS011;40040;42.706;23.372;2022-07-03T09:02:30;8.15;;;7.35;;
6937;SDS011;40040;42.706;23.372;2022-07-03T09:04:58;11.23;;;7.30;;
6937;SDS011;40040;42.706;23.372;2022-07-03T09:07:27;8.73;;;6.72;;
6937;SDS011;40040;42.706;23.372;2022-07-03T09:09:57;7.35;;;6.75;;
6937;SDS011;40040;42.706;23.372;2022-07-03T09:12:25;8.27;;;6.43;;
6937;SDS011;40040;42.706;23.372;2022-07-03T09:14:52;8.80;;;8.00;;
6937;SDS011;40040;42.706;23.372;2022-07-03T09:17:19;8.95;;;8.07;;
6937;SDS011;40040;42.706;23.372;2022-07-03T09:19:47;20.02;;;15.75;;
6937;SDS011;40040;42.706;23.372;2022-07-03T09:22:21;6.68;;;6.10;;
6937;SDS011;40040;42.706;23.372;2022-07-03T09:24:50;11.75;;;10.55;;
6937;SDS011;40040;42.706;23.372;2022-07-03T09:27:18;7.82;;;6.30;;
6937;SDS011;40040;42.706;23.372;2022-07-03T09:29:59;10.13;;;6.85;;
6937;SDS011;40040;42.706;23.372;2022-07-03T09:32:30;33.92;;;22.20;;
6937;SDS011;40040;42.706;23.372;2022-07-03T09:37:55;7.32;;;6.57;;
6937;SDS011;40040;42.706;23.372;2022-07-03T09:40:27;8.50;;;6.50;;
6937;SDS011;40040;42.706;23.372;2022-07-03T09:45:50;7.07;;;6.47;;
6937;SDS011;40040;42.706;23.372;2022-07-03T09:48:24;6.90;;;6.25;;
6937;SDS011;40040;42.706;23.372;2022-07-03T09:51:13;6.88;;;6.28;;
6937;SDS011;40040;42.706;23.372;2022-07-03T09:53:46;6.90;;;6.20;;
6937;SDS011;40040;42.706;23.372;2022-07-03T09:56:14;6.57;;;5.97;;
6937;SDS011;40040;42.706;23.372;2022-07-03T10:01:30;6.78;;;6.10;;
6937;SDS011;40040;42.706;23.372;2022-07-03T10:04:08;7.03;;;6.32;;
6937;SDS011;40040;42.706;23.372;2022-07-03T10:06:47;6.30;;;5.80;;
6937;SDS011;40040;42.706;23.372;2022-07-03T10:09:18;7.00;;;6.35;;
6937;SDS011;40040;42.706;23.372;2022-07-03T10:11:46;7.70;;;6.47;;
6937;SDS011;40040;42.706;23.372;2022-07-03T10:14:14;6.00;;;5.55;;
6937;SDS011;40040;42.706;23.372;2022-07-03T10:16:42;6.50;;;6.00;;
6937;SDS011;40040;42.706;23.372;2022-07-03T10:19:12;6.20;;;5.60;;
6937;SDS011;40040;42.706;23.372;2022-07-03T10:21:43;6.50;;;5.72;;
6937;SDS011;40040;42.706;23.372;2022-07-03T10:24:17;6.10;;;5.60;;
6937;SDS011;40040;42.706;23.372;2022-07-03T10:26:44;6.22;;;5.70;;
6937;SDS011;40040;42.706;23.372;2022-07-03T10:29:13;6.72;;;5.75;;
6937;SDS011;40040;42.706;23.372;2022-07-03T10:31:43;8.25;;;6.30;;
6937;SDS011;40040;42.706;23.372;2022-07-03T10:34:12;5.90;;;5.40;;
6937;SDS011;40040;42.706;23.372;2022-07-03T10:36:42;7.40;;;5.50;;
6937;SDS011;40040;42.706;23.372;2022-07-03T10:39:13;6.72;;;5.95;;
6937;SDS011;40040;42.706;23.372;2022-07-03T10:41:47;7.75;;;5.78;;
6937;SDS011;40040;42.706;23.372;2022-07-03T10:44:49;6.28;;;5.72;;
6937;SDS011;40040;42.706;23.372;2022-07-03T10:50:05;6.88;;;6.25;;
6937;SDS011;40040;42.706;23.372;2022-07-03T10:52:34;6.80;;;6.20;;
6937;SDS011;40040;42.706;23.372;2022-07-03T10:55:02;6.07;;;5.32;;
6937;SDS011;40040;42.706;23.372;2022-07-03T10:57:31;5.88;;;5.30;;
6937;SDS011;40040;42.706;23.372;2022-07-03T11:00:04;5.55;;;5.07;;
6937;SDS011;40040;42.706;23.372;2022-07-03T11:02:38;5.57;;;5.07;;
6937;SDS011;40040;42.706;23.372;2022-07-03T11:05:10;5.35;;;4.95;;
6937;SDS011;40040;42.706;23.372;2022-07-03T11:07:43;6.00;;;5.40;;
6937;SDS011;40040;42.706;23.372;2022-07-03T11:10:34;5.38;;;4.93;;
6937;SDS011;40040;42.706;23.372;2022-07-03T11:13:09;5.47;;;5.03;;
6937;SDS011;40040;42.706;23.372;2022-07-03T11:15:42;5.53;;;5.13;;
6937;SDS011;40040;42.706;23.372;2022-07-03T11:18:13;5.57;;;5.03;;
6937;SDS011;40040;42.706;23.372;2022-07-03T11:26:45;7.60;;;5.18;;
6937;SDS011;40040;42.706;23.372;2022-07-03T11:31:54;6.05;;;5.45;;
6937;SDS011;40040;42.706;23.372;2022-07-03T11:34:21;5.40;;;5.00;;
6937;SDS011;40040;42.706;23.372;2022-07-03T11:36:48;5.65;;;5.15;;
6937;SDS011;40040;42.706;23.372;2022-07-03T11:39:15;5.57;;;5.10;;
6937;SDS011;40040;42.706;23.372;2022-07-03T11:41:47;5.45;;;5.05;;
6937;SDS011;40040;42.706;23.372;2022-07-03T11:44:15;5.85;;;5.38;;
6937;SDS011;40040;42.706;23.372;2022-07-03T11:46:47;5.90;;;5.38;;
6937;SDS011;40040;42.706;23.372;2022-07-03T11:49:15;5.75;;;5.25;;
6937;SDS011;40040;42.706;23.372;2022-07-03T11:51:55;6.45;;;5.47;;
6937;SDS011;40040;42.706;23.372;2022-07-03T11:54:24;5.90;;;5.40;;
6937;SDS011;40040;42.706;23.372;2022-07-03T11:56:52;6.28;;;5.72;;
6937;SDS011;40040;42.706;23.372;2022-07-03T11:59:19;5.97;;;5.40;;
6937;SDS011;40040;42.706;23.372;2022-07-03T12:01:46;5.82;;;5.25;;
6937;SDS011;40040;42.706;23.372;2022-07-03T12:04:14;6.65;;;5.10;;
6937;SDS011;40040;42.706;23.372;2022-07-03T12:06:42;5.88;;;5.18;;
6937;SDS011;40040;42.706;23.372;2022-07-03T12:09:14;5.60;;;5.20;;
6937;SDS011;40040;42.706;23.372;2022-07-03T12:11:44;5.85;;;4.82;;
6937;SDS011;40040;42.706;23.372;2022-07-03T12:14:32;5.88;;;5.30;;
6937;SDS011;40040;42.706;23.372;2022-07-03T12:17:00;5.90;;;5.38;;
6937;SDS011;40040;42.706;23.372;2022-07-03T12:19:28;5.68;;;5.18;;
6937;SDS011;40040;42.706;23.372;2022-07-03T12:21:55;6.68;;;6.07;;
6937;SDS011;40040;42.706;23.372;2022-07-03T12:24:22;5.78;;;5.28;;
6937;SDS011;40040;42.706;23.372;2022-07-03T12:26:49;6.97;;;5.93;;
6937;SDS011;40040;42.706;23.372;2022-07-03T12:29:17;6.80;;;6.28;;
6937;SDS011;40040;42.706;23.372;2022-07-03T12:31:45;7.00;;;6.07;;
6937;SDS011;40040;42.706;23.372;2022-07-03T12:34:14;8.05;;;6.28;;
6937;SDS011;40040;42.706;23.372;2022-07-03T12:36:53;6.30;;;5.68;;
6937;SDS011;40040;42.706;23.372;2022-07-03T12:39:21;6.07;;;5.57;;
6937;SDS011;40040;42.706;23.372;2022-07-03T12:41:48;6.93;;;5.70;;
6937;SDS011;40040;42.706;23.372;2022-07-03T12:44:15;5.68;;;5.28;;
6937;SDS011;40040;42.706;23.372;2022-07-03T12:46:47;5.95;;;5.45;;
6937;SDS011;40040;42.706;23.372;2022-07-03T12:49:15;5.95;;;5.43;;
6937;SDS011;40040;42.706;23.372;2022-07-03T12:51:43;6.13;;;5.43;;
6937;SDS011;40040;42.706;23.372;2022-07-03T12:54:11;5.95;;;5.32;;
6937;SDS011;40040;42.706;23.372;2022-07-03T12:56:39;6.10;;;5.50;;
6937;SDS011;40040;42.706;23.372;2022-07-03T12:59:06;8.15;;;5.65;;
6937;SDS011;40040;42.706;23.372;2022-07-03T13:01:45;5.88;;;5.38;;
6937;SDS011;40040;42.706;23.372;2022-07-03T13:04:30;6.07;;;5.47;;
6937;SDS011;40040;42.706;23.372;2022-07-03T13:07:02;6.00;;;5.40;;
6937;SDS011;40040;42.706;23.372;2022-07-03T13:09:30;7.00;;;6.20;;
6937;SDS011;40040;42.706;23.372;2022-07-03T13:11:58;6.60;;;6.00;;
6937;SDS011;40040;42.706;23.372;2022-07-03T13:14:25;7.50;;;6.20;;
6937;SDS011;40040;42.706;23.372;2022-07-03T13:16:53;6.50;;;5.95;;
6937;SDS011;40040;42.706;23.372;2022-07-03T13:19:21;9.60;;;6.15;;
6937;SDS011;40040;42.706;23.372;2022-07-03T13:21:49;8.15;;;6.60;;
6937;SDS011;40040;42.706;23.372;2022-07-03T13:24:18;7.05;;;6.35;;
6937;SDS011;40040;42.706;23.372;2022-07-03T13:26:45;6.53;;;5.90;;
6937;SDS011;40040;42.706;23.372;2022-07-03T13:29:14;7.18;;;6.50;;
6937;SDS011;40040;42.706;23.372;2022-07-03T13:31:41;7.85;;;6.97;;
6937;SDS011;40040;42.706;23.372;2022-07-03T13:34:09;7.50;;;6.65;;
6937;SDS011;40040;42.706;23.372;2022-07-03T13:36:36;8.00;;;7.03;;
6937;SDS011;40040;42.706;23.372;2022-07-03T13:39:04;8.98;;;6.90;;
6937;SDS011;40040;42.706;23.372;2022-07-03T13:41:33;7.53;;;6.72;;
6937;SDS011;40040;42.706;23.372;2022-07-03T13:44:00;10.43;;;6.30;;
6937;SDS011;40040;42.706;23.372;2022-07-03T13:46:27;9.70;;;6.97;;
6937;SDS011;40040;42.706;23.372;2022-07-03T13:48:54;7.63;;;6.93;;
6937;SDS011;40040;42.706;23.372;2022-07-03T13:51:22;7.55;;;6.78;;
6937;SDS011;40040;42.706;23.372;2022-07-03T13:53:49;14.43;;;7.30;;
6937;SDS011;40040;42.706;23.372;2022-07-03T13:56:17;7.95;;;6.60;;
6937;SDS011;40040;42.706;23.372;2022-07-03T13:58:44;7.80;;;6.57;;
6937;SDS011;40040;42.706;23.372;2022-07-03T14:01:11;10.95;;;7.18;;
6937;SDS011;40040;42.706;23.372;2022-07-03T14:03:38;9.52;;;6.97;;
6937;SDS011;40040;42.706;23.372;2022-07-03T14:06:05;24.00;;;7.97;;
6937;SDS011;40040;42.706;23.372;2022-07-03T14:08:33;8.27;;;6.43;;
6937;SDS011;40040;42.706;23.372;2022-07-03T14:11:00;12.48;;;6.47;;
6937;SDS011;40040;42.706;23.372;2022-07-03T14:13:27;10.38;;;6.80;;
6937;SDS011;40040;42.706;23.372;2022-07-03T14:15:54;9.02;;;6.65;;
6937;SDS011;40040;42.706;23.372;2022-07-03T14:18:21;7.80;;;6.82;;
6937;SDS011;40040;42.706;23.372;2022-07-03T14:20:48;7.43;;;6.70;;
6937;SDS011;40040;42.706;23.372;2022-07-03T14:23:15;19.27;;;6.80;;
6937;SDS011;40040;42.706;23.372;2022-07-03T14:25:43;16.27;;;7.43;;
6937;SDS011;40040;42.706;23.372;2022-07-03T14:28:10;7.20;;;6.53;;
6937;SDS011;40040;42.706;23.372;2022-07-03T14:30:54;7.13;;;6.43;;
6937;SDS011;40040;42.706;23.372;2022-07-03T14:33:38;17.90;;;7.45;;
6937;SDS011;40040;42.706;23.372;2022-07-03T14:36:05;16.00;;;7.03;;
6937;SDS011;40040;42.706;23.372;2022-07-03T14:38:32;12.10;;;6.65;;
6937;SDS011;40040;42.706;23.372;2022-07-03T14:41:00;10.13;;;6.50;;
6937;SDS011;40040;42.706;23.372;2022-07-03T14:43:27;7.68;;;6.70;;
6937;SDS011;40040;42.706;23.372;2022-07-03T14:45:57;13.00;;;6.75;;
6937;SDS011;40040;42.706;23.372;2022-07-03T14:48:24;18.30;;;7.63;;
6937;SDS011;40040;42.706;23.372;2022-07-03T14:50:51;11.70;;;7.30;;
6937;SDS011;40040;42.706;23.372;2022-07-03T14:53:18;8.60;;;7.07;;
6937;SDS011;40040;42.706;23.372;2022-07-03T14:55:47;8.27;;;6.50;;
6937;SDS011;40040;42.706;23.372;2022-07-03T14:58:16;6.85;;;6.18;;
6937;SDS011;40040;42.706;23.372;2022-07-03T15:00:47;9.70;;;7.10;;
6937;SDS011;40040;42.706;23.372;2022-07-03T15:03:16;7.35;;;6.53;;
6937;SDS011;40040;42.706;23.372;2022-07-03T15:05:45;12.15;;;7.00;;
6937;SDS011;40040;42.706;23.372;2022-07-03T15:08:17;7.00;;;6.30;;
6937;SDS011;40040;42.706;23.372;2022-07-03T15:10:54;8.63;;;6.88;;
6937;SDS011;40040;42.706;23.372;2022-07-03T15:13:23;7.20;;;6.50;;